sensor_id;sensor_type;location;lat;lon;timestamp;P1;durP1;ratioP1;P2;durP2;ratioP2
71979;SDS011;59853;48.190;11.860;2022-10-31T00:00:49;7.68;;;3.60;;
71979;SDS011;59853;48.190;11.860;2022-10-31T00:03:16;8.35;;;4.32;;
71979;SDS011;59853;48.190;11.860;2022-10-31T00:05:44;11.68;;;3.88;;
71979;SDS011;59853;48.190;11.860;2022-10-31T00:08:11;7.85;;;3.65;;
71979;SDS011;59853;48.190;11.860;2022-10-31T00:10:37;7.75;;;3.70;;
71979;SDS011;59853;48.190;11.860;2022-10-31T00:13:09;15.05;;;4.05;;
71979;SDS011;59853;48.190;11.860;2022-10-31T00:15:36;8.98;;;3.65;;
71979;SDS011;59853;48.190;11.860;2022-10-31T00:18:02;10.93;;;4.28;;
71979;SDS011;59853;48.190;11.860;2022-10-31T00:20:31;10.40;;;4.30;;
71979;SDS011;59853;48.190;11.860;2022-10-31T00:22:57;9.20;;;4.30;;
71979;SDS011;59853;48.190;11.860;2022-10-31T00:25:23;9.43;;;3.58;;
71979;SDS011;59853;48.190;11.860;2022-10-31T00:27:49;9.52;;;4.07;;
71979;SDS011;59853;48.190;11.860;2022-10-31T00:30:15;11.00;;;3.78;;
71979;SDS011;59853;48.190;11.860;2022-10-31T00:32:40;8.43;;;2.88;;
71979;SDS011;59853;48.190;11.860;2022-10-31T00:35:06;5.88;;;3.33;;
71979;SDS011;59853;48.190;11.860;2022-10-31T00:37:32;8.35;;;3.33;;
71979;SDS011;59853;48.190;11.860;2022-10-31T00:39:57;8.50;;;3.38;;
71979;SDS011;59853;48.190;11.860;2022-10-31T00:42:23;7.07;;;3.25;;
71979;SDS011;59853;48.190;11.860;2022-10-31T00:44:48;7.57;;;3.33;;
71979;SDS011;59853;48.190;11.860;2022-10-31T00:47:14;6.55;;;3.22;;
71979;SDS011;59853;48.190;11.860;2022-10-31T00:49:39;8.45;;;3.67;;
71979;SDS011;59853;48.190;11.860;2022-10-31T00:52:05;8.63;;;3.80;;
71979;SDS011;59853;48.190;11.860;2022-10-31T00:54:30;10.07;;;3.90;;
71979;SDS011;59853;48.190;11.860;2022-10-31T00:56:56;7.45;;;3.20;;
71979;SDS011;59853;48.190;11.860;2022-10-31T00:59:22;5.78;;;3.13;;
71979;SDS011;59853;48.190;11.860;2022-10-31T01:01:48;9.13;;;3.35;;
71979;SDS011;59853;48.190;11.860;2022-10-31T01:04:14;12.82;;;3.78;;
71979;SDS011;59853;48.190;11.860;2022-10-31T01:06:40;7.88;;;3.70;;
71979;SDS011;59853;48.190;11.860;2022-10-31T01:09:05;9.18;;;3.25;;
71979;SDS011;59853;48.190;11.860;2022-10-31T01:11:31;8.02;;;3.17;;
71979;SDS011;59853;48.190;11.860;2022-10-31T01:13:56;10.98;;;3.50;;
71979;SDS011;59853;48.190;11.860;2022-10-31T01:16:23;9.35;;;3.15;;
71979;SDS011;59853;48.190;11.860;2022-10-31T01:18:50;5.63;;;3.00;;
71979;SDS011;59853;48.190;11.860;2022-10-31T01:21:17;9.38;;;3.78;;
71979;SDS011;59853;48.190;11.860;2022-10-31T01:23:44;9.88;;;3.58;;
71979;SDS011;59853;48.190;11.860;2022-10-31T01:26:13;7.40;;;3.50;;
71979;SDS011;59853;48.190;11.860;2022-10-31T01:28:44;12.25;;;4.05;;
71979;SDS011;59853;48.190;11.860;2022-10-31T01:31:11;8.55;;;4.15;;
71979;SDS011;59853;48.190;11.860;2022-10-31T01:33:37;8.15;;;3.47;;
71979;SDS011;59853;48.190;11.860;2022-10-31T01:36:19;13.93;;;4.15;;
71979;SDS011;59853;48.190;11.860;2022-10-31T01:38:49;13.38;;;3.60;;
71979;SDS011;59853;48.190;11.860;2022-10-31T01:41:17;11.52;;;4.15;;
71979;SDS011;59853;48.190;11.860;2022-10-31T01:43:54;11.02;;;3.53;;
71979;SDS011;59853;48.190;11.860;2022-10-31T01:46:21;8.23;;;3.58;;
71979;SDS011;59853;48.190;11.860;2022-10-31T01:48:49;9.52;;;3.13;;
71979;SDS011;59853;48.190;11.860;2022-10-31T01:51:17;6.53;;;2.92;;
71979;SDS011;59853;48.190;11.860;2022-10-31T01:53:46;10.35;;;3.20;;
71979;SDS011;59853;48.190;11.860;2022-10-31T01:56:13;8.63;;;3.78;;
71979;SDS011;59853;48.190;11.860;2022-10-31T01:58:39;6.95;;;2.90;;
71979;SDS011;59853;48.190;11.860;2022-10-31T02:01:05;7.97;;;3.22;;
71979;SDS011;59853;48.190;11.860;2022-10-31T02:03:30;8.60;;;3.00;;
71979;SDS011;59853;48.190;11.860;2022-10-31T02:05:57;7.15;;;2.85;;
71979;SDS011;59853;48.190;11.860;2022-10-31T02:08:24;6.90;;;2.90;;
71979;SDS011;59853;48.190;11.860;2022-10-31T02:10:52;7.40;;;3.40;;
71979;SDS011;59853;48.190;11.860;2022-10-31T02:13:18;8.00;;;3.17;;
71979;SDS011;59853;48.190;11.860;2022-10-31T02:15:47;9.40;;;3.40;;
71979;SDS011;59853;48.190;11.860;2022-10-31T02:18:17;8.57;;;3.55;;
71979;SDS011;59853;48.190;11.860;2022-10-31T02:21:02;5.38;;;2.83;;
71979;SDS011;59853;48.190;11.860;2022-10-31T02:32:20;7.53;;;2.95;;
71979;SDS011;59853;48.190;11.860;2022-10-31T02:35:03;8.80;;;2.90;;
71979;SDS011;59853;48.190;11.860;2022-10-31T02:40:35;6.82;;;3.13;;
71979;SDS011;59853;48.190;11.860;2022-10-31T02:43:29;8.43;;;3.08;;
71979;SDS011;59853;48.190;11.860;2022-10-31T02:45:58;6.45;;;2.97;;
71979;SDS011;59853;48.190;11.860;2022-10-31T02:48:37;9.27;;;3.60;;
71979;SDS011;59853;48.190;11.860;2022-10-31T02:51:04;7.82;;;3.28;;
71979;SDS011;59853;48.190;11.860;2022-10-31T02:53:33;7.13;;;3.20;;
71979;SDS011;59853;48.190;11.860;2022-10-31T02:56:15;10.13;;;3.05;;
71979;SDS011;59853;48.190;11.860;2022-10-31T02:59:02;9.30;;;3.13;;
71979;SDS011;59853;48.190;11.860;2022-10-31T03:06:56;7.80;;;2.42;;
71979;SDS011;59853;48.190;11.860;2022-10-31T03:09:37;6.63;;;2.70;;
71979;SDS011;59853;48.190;11.860;2022-10-31T03:12:09;6.55;;;2.67;;
71979;SDS011;59853;48.190;11.860;2022-10-31T03:17:15;6.50;;;2.80;;
71979;SDS011;59853;48.190;11.860;2022-10-31T03:19:49;6.38;;;2.95;;
71979;SDS011;59853;48.190;11.860;2022-10-31T03:22:19;8.27;;;3.35;;
71979;SDS011;59853;48.190;11.860;2022-10-31T03:24:46;6.35;;;2.65;;
71979;SDS011;59853;48.190;11.860;2022-10-31T03:27:14;5.80;;;2.60;;
71979;SDS011;59853;48.190;11.860;2022-10-31T03:29:42;9.48;;;3.25;;
71979;SDS011;59853;48.190;11.860;2022-10-31T03:32:11;8.43;;;4.53;;
71979;SDS011;59853;48.190;11.860;2022-10-31T03:34:39;5.60;;;2.70;;
71979;SDS011;59853;48.190;11.860;2022-10-31T03:37:07;10.07;;;3.30;;
71979;SDS011;59853;48.190;11.860;2022-10-31T03:39:35;7.63;;;3.25;;
71979;SDS011;59853;48.190;11.860;2022-10-31T03:42:05;6.53;;;3.33;;
71979;SDS011;59853;48.190;11.860;2022-10-31T03:44:32;10.55;;;3.65;;
71979;SDS011;59853;48.190;11.860;2022-10-31T03:47:01;8.32;;;3.30;;
71979;SDS011;59853;48.190;11.860;2022-10-31T03:49:28;8.05;;;3.00;;
71979;SDS011;59853;48.190;11.860;2022-10-31T03:54:42;10.30;;;2.92;;
71979;SDS011;59853;48.190;11.860;2022-10-31T03:59:43;8.40;;;3.00;;
71979;SDS011;59853;48.190;11.860;2022-10-31T04:02:14;7.10;;;2.95;;
71979;SDS011;59853;48.190;11.860;2022-10-31T04:04:43;6.75;;;3.40;;
71979;SDS011;59853;48.190;11.860;2022-10-31T04:07:10;8.68;;;3.55;;
71979;SDS011;59853;48.190;11.860;2022-10-31T04:09:38;6.82;;;3.15;;
71979;SDS011;59853;48.190;11.860;2022-10-31T04:12:08;9.68;;;3.13;;
71979;SDS011;59853;48.190;11.860;2022-10-31T04:14:54;9.00;;;2.90;;
71979;SDS011;59853;48.190;11.860;2022-10-31T04:17:21;5.55;;;2.88;;
71979;SDS011;59853;48.190;11.860;2022-10-31T04:19:48;7.28;;;2.90;;
71979;SDS011;59853;48.190;11.860;2022-10-31T04:22:14;5.60;;;2.80;;
71979;SDS011;59853;48.190;11.860;2022-10-31T04:24:40;11.82;;;2.53;;
71979;SDS011;59853;48.190;11.860;2022-10-31T04:27:07;4.75;;;2.42;;
71979;SDS011;59853;48.190;11.860;2022-10-31T04:29:32;5.45;;;2.42;;
71979;SDS011;59853;48.190;11.860;2022-10-31T04:31:58;6.97;;;2.80;;
71979;SDS011;59853;48.190;11.860;2022-10-31T04:34:23;8.77;;;2.72;;
71979;SDS011;59853;48.190;11.860;2022-10-31T04:36:49;4.53;;;2.55;;
71979;SDS011;59853;48.190;11.860;2022-10-31T04:39:16;7.97;;;2.20;;
71979;SDS011;59853;48.190;11.860;2022-10-31T04:42:03;6.03;;;2.40;;
71979;SDS011;59853;48.190;11.860;2022-10-31T04:44:30;6.65;;;2.42;;
71979;SDS011;59853;48.190;11.860;2022-10-31T04:46:59;5.72;;;2.60;;
71979;SDS011;59853;48.190;11.860;2022-10-31T04:49:25;6.40;;;2.50;;
71979;SDS011;59853;48.190;11.860;2022-10-31T04:51:51;5.18;;;2.25;;
71979;SDS011;59853;48.190;11.860;2022-10-31T04:54:17;7.97;;;2.47;;
71979;SDS011;59853;48.190;11.860;2022-10-31T04:57:03;7.20;;;2.35;;
71979;SDS011;59853;48.190;11.860;2022-10-31T04:59:30;5.57;;;2.83;;
71979;SDS011;59853;48.190;11.860;2022-10-31T05:01:57;5.78;;;3.05;;
71979;SDS011;59853;48.190;11.860;2022-10-31T05:04:35;5.97;;;2.80;;
71979;SDS011;59853;48.190;11.860;2022-10-31T05:07:01;5.57;;;2.60;;
71979;SDS011;59853;48.190;11.860;2022-10-31T05:09:27;8.40;;;3.10;;
71979;SDS011;59853;48.190;11.860;2022-10-31T05:11:52;6.40;;;3.30;;
71979;SDS011;59853;48.190;11.860;2022-10-31T05:14:38;7.70;;;2.95;;
71979;SDS011;59853;48.190;11.860;2022-10-31T05:17:23;8.02;;;2.58;;
71979;SDS011;59853;48.190;11.860;2022-10-31T05:20:09;7.53;;;2.92;;
71979;SDS011;59853;48.190;11.860;2022-10-31T05:22:54;7.35;;;3.08;;
71979;SDS011;59853;48.190;11.860;2022-10-31T05:25:22;6.97;;;3.30;;
71979;SDS011;59853;48.190;11.860;2022-10-31T05:27:50;10.10;;;2.75;;
71979;SDS011;59853;48.190;11.860;2022-10-31T05:30:17;6.82;;;2.80;;
71979;SDS011;59853;48.190;11.860;2022-10-31T05:32:46;5.22;;;2.70;;
71979;SDS011;59853;48.190;11.860;2022-10-31T05:35:32;6.82;;;2.92;;
71979;SDS011;59853;48.190;11.860;2022-10-31T05:38:18;6.13;;;2.78;;
71979;SDS011;59853;48.190;11.860;2022-10-31T05:40:44;6.25;;;2.63;;
71979;SDS011;59853;48.190;11.860;2022-10-31T05:43:09;10.15;;;2.20;;
71979;SDS011;59853;48.190;11.860;2022-10-31T05:45:35;6.50;;;2.38;;
71979;SDS011;59853;48.190;11.860;2022-10-31T05:48:05;8.98;;;2.75;;
71979;SDS011;59853;48.190;11.860;2022-10-31T05:51:09;5.38;;;2.20;;
71979;SDS011;59853;48.190;11.860;2022-10-31T05:53:35;7.00;;;2.30;;
71979;SDS011;59853;48.190;11.860;2022-10-31T05:56:00;5.82;;;2.75;;
71979;SDS011;59853;48.190;11.860;2022-10-31T05:58:26;3.33;;;2.13;;
71979;SDS011;59853;48.190;11.860;2022-10-31T06:01:02;4.30;;;2.38;;
71979;SDS011;59853;48.190;11.860;2022-10-31T06:03:27;8.48;;;2.67;;
71979;SDS011;59853;48.190;11.860;2022-10-31T06:05:55;7.00;;;2.40;;
71979;SDS011;59853;48.190;11.860;2022-10-31T06:08:23;4.30;;;1.85;;
71979;SDS011;59853;48.190;11.860;2022-10-31T06:11:14;5.38;;;2.17;;
71979;SDS011;59853;48.190;11.860;2022-10-31T06:13:58;5.93;;;2.80;;
71979;SDS011;59853;48.190;11.860;2022-10-31T06:16:31;5.88;;;2.40;;
71979;SDS011;59853;48.190;11.860;2022-10-31T06:19:03;4.97;;;2.53;;
71979;SDS011;59853;48.190;11.860;2022-10-31T06:21:30;9.35;;;3.45;;
71979;SDS011;59853;48.190;11.860;2022-10-31T06:23:55;6.05;;;2.58;;
71979;SDS011;59853;48.190;11.860;2022-10-31T06:26:50;5.85;;;2.45;;
71979;SDS011;59853;48.190;11.860;2022-10-31T06:29:15;7.25;;;3.10;;
71979;SDS011;59853;48.190;11.860;2022-10-31T06:32:00;8.32;;;2.67;;
71979;SDS011;59853;48.190;11.860;2022-10-31T06:34:27;10.13;;;3.40;;
71979;SDS011;59853;48.190;11.860;2022-10-31T06:36:52;7.68;;;3.15;;
71979;SDS011;59853;48.190;11.860;2022-10-31T06:39:22;11.80;;;3.15;;
71979;SDS011;59853;48.190;11.860;2022-10-31T06:41:47;6.05;;;2.72;;
71979;SDS011;59853;48.190;11.860;2022-10-31T06:44:14;5.30;;;2.35;;
71979;SDS011;59853;48.190;11.860;2022-10-31T06:47:00;6.03;;;3.03;;
71979;SDS011;59853;48.190;11.860;2022-10-31T06:49:54;9.15;;;3.30;;
71979;SDS011;59853;48.190;11.860;2022-10-31T06:52:21;7.35;;;3.72;;
71979;SDS011;59853;48.190;11.860;2022-10-31T06:54:49;11.02;;;3.35;;
71979;SDS011;59853;48.190;11.860;2022-10-31T06:57:15;10.85;;;3.33;;
71979;SDS011;59853;48.190;11.860;2022-10-31T06:59:40;9.52;;;3.53;;
71979;SDS011;59853;48.190;11.860;2022-10-31T07:02:10;11.05;;;4.07;;
71979;SDS011;59853;48.190;11.860;2022-10-31T07:04:36;10.00;;;4.60;;
71979;SDS011;59853;48.190;11.860;2022-10-31T07:07:02;10.70;;;3.72;;
71979;SDS011;59853;48.190;11.860;2022-10-31T07:09:28;6.90;;;3.53;;
71979;SDS011;59853;48.190;11.860;2022-10-31T07:11:56;10.73;;;5.43;;
71979;SDS011;59853;48.190;11.860;2022-10-31T07:14:22;7.55;;;4.63;;
71979;SDS011;59853;48.190;11.860;2022-10-31T07:16:48;9.55;;;4.55;;
71979;SDS011;59853;48.190;11.860;2022-10-31T07:19:15;7.85;;;3.95;;
71979;SDS011;59853;48.190;11.860;2022-10-31T07:21:41;8.77;;;3.60;;
71979;SDS011;59853;48.190;11.860;2022-10-31T07:24:08;10.48;;;4.00;;
71979;SDS011;59853;48.190;11.860;2022-10-31T07:26:42;10.82;;;3.95;;
71979;SDS011;59853;48.190;11.860;2022-10-31T07:29:09;10.20;;;4.32;;
71979;SDS011;59853;48.190;11.860;2022-10-31T07:31:35;10.50;;;4.05;;
71979;SDS011;59853;48.190;11.860;2022-10-31T07:34:08;11.48;;;4.43;;
71979;SDS011;59853;48.190;11.860;2022-10-31T07:36:33;9.90;;;3.83;;
71979;SDS011;59853;48.190;11.860;2022-10-31T07:39:02;9.05;;;4.22;;
71979;SDS011;59853;48.190;11.860;2022-10-31T07:41:29;10.10;;;3.67;;
71979;SDS011;59853;48.190;11.860;2022-10-31T07:43:55;9.65;;;3.85;;
71979;SDS011;59853;48.190;11.860;2022-10-31T07:46:39;11.25;;;3.40;;
71979;SDS011;59853;48.190;11.860;2022-10-31T07:49:39;9.40;;;3.58;;
71979;SDS011;59853;48.190;11.860;2022-10-31T07:52:23;12.13;;;3.58;;
71979;SDS011;59853;48.190;11.860;2022-10-31T07:55:09;8.60;;;3.60;;
71979;SDS011;59853;48.190;11.860;2022-10-31T07:57:35;10.52;;;3.33;;
71979;SDS011;59853;48.190;11.860;2022-10-31T08:00:05;9.13;;;3.23;;
71979;SDS011;59853;48.190;11.860;2022-10-31T08:02:40;10.13;;;3.20;;
71979;SDS011;59853;48.190;11.860;2022-10-31T08:05:44;7.60;;;2.55;;
71979;SDS011;59853;48.190;11.860;2022-10-31T08:08:37;6.70;;;2.88;;
71979;SDS011;59853;48.190;11.860;2022-10-31T08:11:03;16.55;;;4.97;;
71979;SDS011;59853;48.190;11.860;2022-10-31T08:13:29;7.95;;;2.80;;
71979;SDS011;59853;48.190;11.860;2022-10-31T08:15:57;6.10;;;2.50;;
71979;SDS011;59853;48.190;11.860;2022-10-31T08:18:28;6.63;;;2.40;;
71979;SDS011;59853;48.190;11.860;2022-10-31T08:20:54;9.23;;;2.65;;
71979;SDS011;59853;48.190;11.860;2022-10-31T08:23:20;7.15;;;2.58;;
71979;SDS011;59853;48.190;11.860;2022-10-31T08:25:45;9.82;;;2.95;;
71979;SDS011;59853;48.190;11.860;2022-10-31T08:28:12;9.40;;;2.60;;
71979;SDS011;59853;48.190;11.860;2022-10-31T08:30:41;7.10;;;2.80;;
71979;SDS011;59853;48.190;11.860;2022-10-31T08:33:33;12.10;;;3.63;;
71979;SDS011;59853;48.190;11.860;2022-10-31T08:36:18;8.07;;;3.03;;
71979;SDS011;59853;48.190;11.860;2022-10-31T08:38:50;12.52;;;4.38;;
71979;SDS011;59853;48.190;11.860;2022-10-31T08:41:16;11.80;;;3.75;;
71979;SDS011;59853;48.190;11.860;2022-10-31T08:43:42;8.13;;;3.25;;
71979;SDS011;59853;48.190;11.860;2022-10-31T08:46:33;8.15;;;2.80;;
71979;SDS011;59853;48.190;11.860;2022-10-31T08:48:59;7.07;;;2.45;;
71979;SDS011;59853;48.190;11.860;2022-10-31T08:51:25;6.95;;;2.60;;
71979;SDS011;59853;48.190;11.860;2022-10-31T08:53:53;7.57;;;2.55;;
71979;SDS011;59853;48.190;11.860;2022-10-31T08:56:39;7.88;;;2.35;;
71979;SDS011;59853;48.190;11.860;2022-10-31T08:59:17;8.95;;;3.47;;
71979;SDS011;59853;48.190;11.860;2022-10-31T09:02:08;7.22;;;3.03;;
71979;SDS011;59853;48.190;11.860;2022-10-31T09:04:34;6.88;;;2.08;;
71979;SDS011;59853;48.190;11.860;2022-10-31T09:07:02;9.13;;;2.72;;
71979;SDS011;59853;48.190;11.860;2022-10-31T09:09:28;7.13;;;2.13;;
71979;SDS011;59853;48.190;11.860;2022-10-31T09:11:55;8.32;;;1.98;;
71979;SDS011;59853;48.190;11.860;2022-10-31T09:14:40;8.57;;;2.22;;
71979;SDS011;59853;48.190;11.860;2022-10-31T09:17:19;6.50;;;1.98;;
71979;SDS011;59853;48.190;11.860;2022-10-31T09:20:04;5.43;;;2.15;;
71979;SDS011;59853;48.190;11.860;2022-10-31T09:22:33;6.32;;;2.00;;
71979;SDS011;59853;48.190;11.860;2022-10-31T09:24:59;7.10;;;2.40;;
71979;SDS011;59853;48.190;11.860;2022-10-31T09:27:24;5.20;;;2.03;;
71979;SDS011;59853;48.190;11.860;2022-10-31T09:29:52;7.43;;;2.08;;
71979;SDS011;59853;48.190;11.860;2022-10-31T09:32:18;7.45;;;1.90;;
71979;SDS011;59853;48.190;11.860;2022-10-31T09:34:45;5.68;;;2.00;;
71979;SDS011;59853;48.190;11.860;2022-10-31T09:37:14;6.07;;;2.08;;
71979;SDS011;59853;48.190;11.860;2022-10-31T09:39:39;6.32;;;2.45;;
71979;SDS011;59853;48.190;11.860;2022-10-31T09:42:34;6.53;;;2.03;;
71979;SDS011;59853;48.190;11.860;2022-10-31T09:45:31;5.30;;;1.92;;
71979;SDS011;59853;48.190;11.860;2022-10-31T09:51:18;5.60;;;1.73;;
71979;SDS011;59853;48.190;11.860;2022-10-31T09:56:43;5.88;;;2.03;;
71979;SDS011;59853;48.190;11.860;2022-10-31T09:59:11;7.78;;;2.30;;
71979;SDS011;59853;48.190;11.860;2022-10-31T10:01:46;5.60;;;2.35;;
71979;SDS011;59853;48.190;11.860;2022-10-31T10:07:12;6.15;;;2.22;;
71979;SDS011;59853;48.190;11.860;2022-10-31T10:09:42;6.10;;;1.88;;
71979;SDS011;59853;48.190;11.860;2022-10-31T10:24:08;6.50;;;2.03;;
71979;SDS011;59853;48.190;11.860;2022-10-31T10:26:43;5.78;;;1.95;;
71979;SDS011;59853;48.190;11.860;2022-10-31T10:31:53;4.93;;;2.10;;
71979;SDS011;59853;48.190;11.860;2022-10-31T10:34:31;7.40;;;2.20;;
71979;SDS011;59853;48.190;11.860;2022-10-31T10:37:03;6.88;;;2.63;;
71979;SDS011;59853;48.190;11.860;2022-10-31T10:39:32;7.28;;;2.60;;
71979;SDS011;59853;48.190;11.860;2022-10-31T10:42:27;7.38;;;2.15;;
71979;SDS011;59853;48.190;11.860;2022-10-31T10:45:15;8.00;;;2.30;;
71979;SDS011;59853;48.190;11.860;2022-10-31T10:50:41;7.05;;;2.40;;
71979;SDS011;59853;48.190;11.860;2022-10-31T10:53:25;5.57;;;2.42;;
71979;SDS011;59853;48.190;11.860;2022-10-31T10:56:09;8.25;;;2.22;;
71979;SDS011;59853;48.190;11.860;2022-10-31T10:59:07;8.85;;;2.85;;
71979;SDS011;59853;48.190;11.860;2022-10-31T11:01:41;8.77;;;2.70;;
71979;SDS011;59853;48.190;11.860;2022-10-31T11:04:21;8.43;;;2.65;;
71979;SDS011;59853;48.190;11.860;2022-10-31T11:07:08;7.25;;;2.38;;
71979;SDS011;59853;48.190;11.860;2022-10-31T11:09:42;8.60;;;2.40;;
71979;SDS011;59853;48.190;11.860;2022-10-31T11:12:30;7.05;;;2.47;;
71979;SDS011;59853;48.190;11.860;2022-10-31T11:14:58;6.45;;;2.20;;
71979;SDS011;59853;48.190;11.860;2022-10-31T11:17:27;8.02;;;2.30;;
71979;SDS011;59853;48.190;11.860;2022-10-31T11:20:06;6.15;;;2.22;;
71979;SDS011;59853;48.190;11.860;2022-10-31T11:22:43;8.45;;;2.72;;
71979;SDS011;59853;48.190;11.860;2022-10-31T11:27:58;7.07;;;2.53;;
71979;SDS011;59853;48.190;11.860;2022-10-31T11:30:27;9.43;;;2.28;;
71979;SDS011;59853;48.190;11.860;2022-10-31T11:32:54;7.28;;;2.78;;
71979;SDS011;59853;48.190;11.860;2022-10-31T11:35:20;6.53;;;2.83;;
71979;SDS011;59853;48.190;11.860;2022-10-31T11:37:47;12.75;;;2.95;;
71979;SDS011;59853;48.190;11.860;2022-10-31T11:40:19;9.82;;;2.05;;
71979;SDS011;59853;48.190;11.860;2022-10-31T11:42:46;5.97;;;2.22;;
71979;SDS011;59853;48.190;11.860;2022-10-31T11:45:16;6.97;;;2.50;;
71979;SDS011;59853;48.190;11.860;2022-10-31T11:47:46;14.15;;;2.55;;
71979;SDS011;59853;48.190;11.860;2022-10-31T11:50:39;7.22;;;2.17;;
71979;SDS011;59853;48.190;11.860;2022-10-31T11:53:13;10.48;;;2.38;;
71979;SDS011;59853;48.190;11.860;2022-10-31T11:55:41;6.85;;;2.42;;
71979;SDS011;59853;48.190;11.860;2022-10-31T11:58:20;8.70;;;2.30;;
71979;SDS011;59853;48.190;11.860;2022-10-31T12:00:48;6.55;;;2.33;;
71979;SDS011;59853;48.190;11.860;2022-10-31T12:05:51;6.60;;;2.65;;
71979;SDS011;59853;48.190;11.860;2022-10-31T12:08:21;8.05;;;2.22;;
71979;SDS011;59853;48.190;11.860;2022-10-31T12:10:51;6.35;;;2.92;;
71979;SDS011;59853;48.190;11.860;2022-10-31T12:13:28;6.85;;;2.40;;
71979;SDS011;59853;48.190;11.860;2022-10-31T12:16:09;9.10;;;2.63;;
71979;SDS011;59853;48.190;11.860;2022-10-31T12:18:47;7.25;;;2.40;;
71979;SDS011;59853;48.190;11.860;2022-10-31T12:21:28;7.53;;;3.10;;
71979;SDS011;59853;48.190;11.860;2022-10-31T12:26:34;12.65;;;3.22;;
71979;SDS011;59853;48.190;11.860;2022-10-31T12:29:11;9.05;;;2.63;;
71979;SDS011;59853;48.190;11.860;2022-10-31T12:31:59;9.13;;;3.45;;
71979;SDS011;59853;48.190;11.860;2022-10-31T12:34:42;11.02;;;4.05;;
71979;SDS011;59853;48.190;11.860;2022-10-31T12:45:44;7.90;;;3.53;;
71979;SDS011;59853;48.190;11.860;2022-10-31T13:01:49;12.13;;;5.80;;
71979;SDS011;59853;48.190;11.860;2022-10-31T13:04:19;15.40;;;5.63;;
71979;SDS011;59853;48.190;11.860;2022-10-31T13:06:55;12.43;;;5.40;;
71979;SDS011;59853;48.190;11.860;2022-10-31T13:09:25;11.30;;;5.90;;
71979;SDS011;59853;48.190;11.860;2022-10-31T13:11:57;10.15;;;5.47;;
71979;SDS011;59853;48.190;11.860;2022-10-31T13:14:37;17.55;;;6.65;;
71979;SDS011;59853;48.190;11.860;2022-10-31T13:17:05;10.77;;;5.35;;
71979;SDS011;59853;48.190;11.860;2022-10-31T13:19:34;14.45;;;6.15;;
71979;SDS011;59853;48.190;11.860;2022-10-31T13:22:20;13.13;;;6.50;;
71979;SDS011;59853;48.190;11.860;2022-10-31T13:24:57;13.68;;;7.13;;
71979;SDS011;59853;48.190;11.860;2022-10-31T13:27:30;12.27;;;6.15;;
71979;SDS011;59853;48.190;11.860;2022-10-31T13:35:23;12.98;;;6.70;;
71979;SDS011;59853;48.190;11.860;2022-10-31T13:37:56;15.00;;;6.97;;
71979;SDS011;59853;48.190;11.860;2022-10-31T13:46:24;14.18;;;6.70;;
71979;SDS011;59853;48.190;11.860;2022-10-31T13:54:39;14.82;;;7.05;;
71979;SDS011;59853;48.190;11.860;2022-10-31T13:57:21;13.82;;;7.28;;
71979;SDS011;59853;48.190;11.860;2022-10-31T14:02:48;19.13;;;7.25;;
71979;SDS011;59853;48.190;11.860;2022-10-31T14:05:21;15.57;;;7.18;;
71979;SDS011;59853;48.190;11.860;2022-10-31T14:07:48;15.15;;;6.70;;
71979;SDS011;59853;48.190;11.860;2022-10-31T14:12:52;17.15;;;7.75;;
71979;SDS011;59853;48.190;11.860;2022-10-31T14:15:21;13.48;;;8.13;;
71979;SDS011;59853;48.190;11.860;2022-10-31T14:20:38;14.48;;;7.35;;
71979;SDS011;59853;48.190;11.860;2022-10-31T14:28:45;17.00;;;7.10;;
71979;SDS011;59853;48.190;11.860;2022-10-31T14:34:06;11.93;;;6.22;;
71979;SDS011;59853;48.190;11.860;2022-10-31T14:37:03;16.30;;;6.35;;
71979;SDS011;59853;48.190;11.860;2022-10-31T14:39:55;13.63;;;6.45;;
71979;SDS011;59853;48.190;11.860;2022-10-31T14:45:12;13.07;;;6.40;;
71979;SDS011;59853;48.190;11.860;2022-10-31T14:50:19;10.95;;;6.40;;
71979;SDS011;59853;48.190;11.860;2022-10-31T14:52:58;10.13;;;5.68;;
71979;SDS011;59853;48.190;11.860;2022-10-31T14:55:26;15.13;;;6.55;;
71979;SDS011;59853;48.190;11.860;2022-10-31T14:58:13;11.48;;;6.40;;
71979;SDS011;59853;48.190;11.860;2022-10-31T15:00:45;15.50;;;6.30;;
71979;SDS011;59853;48.190;11.860;2022-10-31T15:05:42;11.15;;;6.68;;
71979;SDS011;59853;48.190;11.860;2022-10-31T15:08:35;15.38;;;6.25;;
71979;SDS011;59853;48.190;11.860;2022-10-31T15:11:10;15.25;;;6.50;;
71979;SDS011;59853;48.190;11.860;2022-10-31T15:13:41;15.60;;;6.30;;
71979;SDS011;59853;48.190;11.860;2022-10-31T15:16:10;14.40;;;6.72;;
71979;SDS011;59853;48.190;11.860;2022-10-31T15:18:37;16.10;;;6.85;;
71979;SDS011;59853;48.190;11.860;2022-10-31T15:21:19;14.18;;;6.18;;
71979;SDS011;59853;48.190;11.860;2022-10-31T15:23:46;14.40;;;6.32;;
71979;SDS011;59853;48.190;11.860;2022-10-31T15:26:21;13.07;;;6.88;;
71979;SDS011;59853;48.190;11.860;2022-10-31T15:29:01;15.07;;;6.60;;
71979;SDS011;59853;48.190;11.860;2022-10-31T15:31:29;14.52;;;6.20;;
71979;SDS011;59853;48.190;11.860;2022-10-31T15:33:58;12.90;;;6.43;;
71979;SDS011;59853;48.190;11.860;2022-10-31T15:39:02;19.30;;;6.95;;
71979;SDS011;59853;48.190;11.860;2022-10-31T15:44:12;16.08;;;7.85;;
71979;SDS011;59853;48.190;11.860;2022-10-31T15:47:19;12.70;;;6.53;;
71979;SDS011;59853;48.190;11.860;2022-10-31T15:49:51;14.43;;;7.00;;
71979;SDS011;59853;48.190;11.860;2022-10-31T15:52:25;18.00;;;7.65;;
71979;SDS011;59853;48.190;11.860;2022-10-31T15:55:04;16.33;;;7.57;;
71979;SDS011;59853;48.190;11.860;2022-10-31T15:57:43;18.83;;;8.90;;
71979;SDS011;59853;48.190;11.860;2022-10-31T16:05:47;15.63;;;7.97;;
71979;SDS011;59853;48.190;11.860;2022-10-31T16:10:58;15.98;;;9.05;;
71979;SDS011;59853;48.190;11.860;2022-10-31T16:13:26;19.88;;;8.70;;
71979;SDS011;59853;48.190;11.860;2022-10-31T16:16:14;17.60;;;9.02;;
71979;SDS011;59853;48.190;11.860;2022-10-31T16:18:40;20.42;;;8.82;;
71979;SDS011;59853;48.190;11.860;2022-10-31T16:21:06;14.98;;;7.95;;
71979;SDS011;59853;48.190;11.860;2022-10-31T16:23:33;22.30;;;8.73;;
71979;SDS011;59853;48.190;11.860;2022-10-31T16:25:58;17.73;;;8.00;;
71979;SDS011;59853;48.190;11.860;2022-10-31T16:28:25;22.45;;;8.68;;
71979;SDS011;59853;48.190;11.860;2022-10-31T16:30:55;16.77;;;8.20;;
71979;SDS011;59853;48.190;11.860;2022-10-31T16:33:23;15.30;;;8.43;;
71979;SDS011;59853;48.190;11.860;2022-10-31T16:35:58;17.70;;;8.85;;
71979;SDS011;59853;48.190;11.860;2022-10-31T16:38:24;23.35;;;9.07;;
71979;SDS011;59853;48.190;11.860;2022-10-31T16:40:50;17.83;;;8.35;;
71979;SDS011;59853;48.190;11.860;2022-10-31T16:43:17;19.33;;;9.52;;
71979;SDS011;59853;48.190;11.860;2022-10-31T16:45:45;17.80;;;9.10;;
71979;SDS011;59853;48.190;11.860;2022-10-31T16:48:15;25.40;;;10.60;;
71979;SDS011;59853;48.190;11.860;2022-10-31T16:50:44;21.10;;;10.20;;
71979;SDS011;59853;48.190;11.860;2022-10-31T16:53:11;19.88;;;10.50;;
71979;SDS011;59853;48.190;11.860;2022-10-31T16:55:44;19.13;;;10.65;;
71979;SDS011;59853;48.190;11.860;2022-10-31T16:58:14;21.77;;;11.57;;
71979;SDS011;59853;48.190;11.860;2022-10-31T17:00:41;25.05;;;11.57;;
71979;SDS011;59853;48.190;11.860;2022-10-31T17:03:07;21.45;;;10.23;;
71979;SDS011;59853;48.190;11.860;2022-10-31T17:05:33;22.77;;;11.30;;
71979;SDS011;59853;48.190;11.860;2022-10-31T17:07:59;19.10;;;9.52;;
71979;SDS011;59853;48.190;11.860;2022-10-31T17:10:25;20.67;;;9.70;;
71979;SDS011;59853;48.190;11.860;2022-10-31T17:12:50;22.60;;;9.55;;